createdAt,value
2018-10-09T00:00:34.000Z,56.02
2018-10-09T00:10:34.000Z,55.961
2018-10-09T00:20:34.000Z,55.916
2018-10-09T00:30:34.000Z,56.019
2018-10-09T00:40:34.000Z,55.973
2018-10-09T00:50:34.000Z,55.873
2018-10-09T01:00:34.000Z,55.695
2018-10-09T01:10:34.000Z,55.68
2018-10-09T01:20:34.000Z,55.721
2018-10-09T01:30:34.000Z,55.792
2018-10-09T01:40:34.000Z,55.769
2018-10-09T01:50:34.000Z,55.786
2018-10-09T02:00:34.000Z,55.815
2018-10-09T02:10:34.000Z,55.814
2018-10-09T02:20:34.000Z,55.885
2018-10-09T02:30:34.000Z,55.861
2018-10-09T02:40:34.000Z,55.879
2018-10-09T02:50:34.000Z,55.834
2018-10-09T03:00:34.000Z,55.851
2018-10-09T03:10:34.000Z,55.87
2018-10-09T03:20:34.000Z,55.846
2018-10-09T03:30:34.000Z,55.865
2018-10-09T03:40:34.000Z,55.851
2018-10-09T03:50:34.000Z,55.891
2018-10-09T04:00:34.000Z,55.887
2018-10-09T04:10:34.000Z,55.896
2018-10-09T04:20:34.000Z,55.894
2018-10-09T04:30:34.000Z,55.913
2018-10-09T04:40:34.000Z,55.867
2018-10-09T04:50:34.000Z,55.909
2018-10-09T05:00:34.000Z,55.833
2018-10-09T05:10:34.000Z,55.85
2018-10-09T05:20:35.000Z,55.85
2018-10-09T05:30:34.000Z,55.848
2018-10-09T05:40:35.000Z,55.803
2018-10-09T05:50:34.000Z,55.83
2018-10-09T06:00:34.000Z,55.796
2018-10-09T06:10:34.000Z,55.728
2018-10-09T06:20:35.000Z,55.694
2018-10-09T06:30:35.000Z,55.627
2018-10-09T06:40:35.000Z,55.562
2018-10-09T06:50:35.000Z,55.475
2018-10-09T07:00:35.000Z,55.389
2018-10-09T07:10:35.000Z,55.326
2018-10-09T07:20:35.000Z,55.188
2018-10-09T07:30:35.000Z,55.038
2018-10-09T07:40:35.000Z,54.849
2018-10-09T07:50:35.000Z,54.839
2018-10-09T08:00:35.000Z,54.586
2018-10-09T08:10:35.000Z,54.582
2018-10-09T08:20:35.000Z,54.465
2018-10-09T08:30:35.000Z,54.168
2018-10-09T08:40:35.000Z,54.299
2018-10-09T08:50:35.000Z,54.344
2018-10-09T09:00:35.000Z,54.321
2018-10-09T09:10:35.000Z,54.036
2018-10-09T09:20:35.000Z,54.112
2018-10-09T09:30:35.000Z,53.561
2018-10-09T09:40:35.000Z,52.752
2018-10-09T09:50:35.000Z,52.091
2018-10-09T10:00:35.000Z,52.268
2018-10-09T10:10:35.000Z,51.339
2018-10-09T10:20:35.000Z,50.721
2018-10-09T10:30:35.000Z,49.845
2018-10-09T10:40:35.000Z,49.343
2018-10-09T10:50:35.000Z,49.364
2018-10-09T11:00:35.000Z,49.758
2018-10-09T11:10:35.000Z,50.001
2018-10-09T11:20:35.000Z,50.134
2018-10-09T11:30:35.000Z,49.718
2018-10-09T11:40:35.000Z,49.577
2018-10-09T11:50:35.000Z,49.523
2018-10-09T12:00:35.000Z,49.408
2018-10-09T12:10:35.000Z,49.493
2018-10-09T12:20:35.000Z,49.384
2018-10-09T12:30:35.000Z,49.289
2018-10-09T12:40:35.000Z,48.622
2018-10-09T12:50:35.000Z,48.794
2018-10-09T13:00:35.000Z,48.729
2018-10-09T13:10:35.000Z,48.889
2018-10-09T13:30:35.000Z,48.891
2018-10-09T13:40:35.000Z,48.911
2018-10-09T13:50:35.000Z,49.146
2018-10-09T14:00:35.000Z,49.05
2018-10-09T14:10:35.000Z,49.073
2018-10-09T14:20:35.000Z,49.36
2018-10-09T14:30:35.000Z,49.434
2018-10-09T14:40:36.000Z,49.379
2018-10-09T14:50:36.000Z,49.629
2018-10-09T15:10:36.000Z,49.59
2018-10-09T15:20:36.000Z,49.567
2018-10-09T15:30:36.000Z,49.564
2018-10-09T15:40:36.000Z,49.639
2018-10-09T15:50:36.000Z,49.649
2018-10-09T16:00:36.000Z,49.853
2018-10-09T16:10:36.000Z,50.025
2018-10-09T16:30:36.000Z,50.249
2018-10-09T16:40:36.000Z,50.441
2018-10-09T16:50:36.000Z,50.405
2018-10-09T17:00:37.000Z,50.422
2018-10-09T17:10:36.000Z,50.527
2018-10-09T17:20:36.000Z,50.546
2018-10-09T17:30:36.000Z,50.649
2018-10-09T17:50:36.000Z,50.761
2018-10-09T18:00:36.000Z,50.803
2018-10-09T18:10:36.000Z,50.95
2018-10-09T18:20:36.000Z,51.023
2018-10-09T18:30:36.000Z,51.083
2018-10-09T18:40:36.000Z,51.124
2018-10-09T18:50:36.000Z,51.186
2018-10-09T19:00:36.000Z,51.215
2018-10-09T19:10:36.000Z,51.704
2018-10-09T19:20:36.000Z,52.207
2018-10-09T19:30:36.000Z,52.373
2018-10-09T19:50:36.000Z,52.63
2018-10-09T20:00:38.000Z,52.784
2018-10-09T20:10:36.000Z,53.041
2018-10-09T20:20:36.000Z,53.148
2018-10-09T20:30:36.000Z,53.19
2018-10-09T20:40:36.000Z,53.241
2018-10-09T20:50:36.000Z,53.318
2018-10-09T21:00:36.000Z,53.534
2018-10-09T21:10:36.000Z,53.703
2018-10-09T21:20:36.000Z,53.872
2018-10-09T21:30:36.000Z,54.138
2018-10-09T21:40:36.000Z,54.082
2018-10-09T21:50:36.000Z,54.133
2018-10-09T22:00:36.000Z,54.129
2018-10-09T22:10:36.000Z,54.161
2018-10-09T22:20:36.000Z,54.19
2018-10-09T22:30:36.000Z,54.208
2018-10-09T22:40:36.000Z,54.313
2018-10-09T22:50:37.000Z,54.247
2018-10-09T23:00:36.000Z,54.374
2018-10-09T23:10:37.000Z,54.416
2018-10-09T23:20:37.000Z,54.38
2018-10-09T23:30:37.000Z,54.4
2018-10-09T23:40:37.000Z,54.482
2018-10-09T23:50:38.000Z,54.48
